createdAt,value
2022-08-21T00:02:26.211Z,71.17
2022-08-21T00:04:57.528Z,70.90
2022-08-21T00:07:27.412Z,70.78
2022-08-21T00:09:56.596Z,71.14
2022-08-21T00:12:25.446Z,70.95
2022-08-21T00:14:58.108Z,70.80
2022-08-21T00:17:27.105Z,71.08
2022-08-21T00:19:55.741Z,70.88
2022-08-21T00:22:24.354Z,70.90
2022-08-21T00:24:53.074Z,70.98
2022-08-21T00:27:21.642Z,71.15
2022-08-21T00:29:50.194Z,71.23
2022-08-21T00:32:24.303Z,71.23
2022-08-21T00:34:53.833Z,71.20
2022-08-21T00:37:22.800Z,71.14
2022-08-21T00:39:52.182Z,71.26
2022-08-21T00:42:21.431Z,70.99
2022-08-21T00:44:51.504Z,71.43
2022-08-21T00:47:20.640Z,71.37
2022-08-21T00:49:49.421Z,71.51
2022-08-21T00:52:29.378Z,71.28
2022-08-21T00:55:00.080Z,71.20
2022-08-21T00:57:47.079Z,71.47
2022-08-21T01:00:23.851Z,71.60
2022-08-21T01:02:55.468Z,71.65
2022-08-21T01:05:24.653Z,71.39
2022-08-21T01:07:53.128Z,71.49
2022-08-21T01:10:24.551Z,71.50
2022-08-21T01:12:58.474Z,71.43
2022-08-21T01:15:32.981Z,71.50
2022-08-21T01:18:03.027Z,71.68
2022-08-21T01:20:32.745Z,71.51
2022-08-21T01:23:04.203Z,71.74
2022-08-21T01:25:33.904Z,71.80
2022-08-21T01:28:10.680Z,71.42
2022-08-21T01:30:40.955Z,71.56
2022-08-21T01:33:09.575Z,71.69
2022-08-21T01:35:39.589Z,71.74
2022-08-21T01:38:07.963Z,71.81
2022-08-21T01:40:36.565Z,71.53
2022-08-21T01:43:05.149Z,71.91
2022-08-21T01:45:33.879Z,71.74
2022-08-21T01:48:03.573Z,71.80
2022-08-21T01:50:32.704Z,71.89
2022-08-21T01:53:01.328Z,71.94
2022-08-21T01:55:30.346Z,71.88
2022-08-21T01:58:00.266Z,71.92
2022-08-21T02:00:28.920Z,72.02
2022-08-21T02:02:57.894Z,71.94
2022-08-21T02:05:26.877Z,71.85
2022-08-21T02:07:56.596Z,71.91
2022-08-21T02:10:31.982Z,72.11
2022-08-21T02:13:01.699Z,72.19
2022-08-21T02:15:31.266Z,72.21
2022-08-21T02:18:02.471Z,72.25
2022-08-21T02:20:37.865Z,72.45
2022-08-21T02:23:08.875Z,72.21
2022-08-21T02:25:38.206Z,72.38
2022-08-21T02:28:09.895Z,72.54
2022-08-21T02:30:45.156Z,72.39
2022-08-21T02:33:14.709Z,72.53
2022-08-21T02:35:45.160Z,72.60
2022-08-21T02:38:17.377Z,72.75
2022-08-21T02:40:50.903Z,72.93
2022-08-21T02:43:21.942Z,72.72
2022-08-21T02:45:51.540Z,72.88
2022-08-21T02:48:24.633Z,72.83
2022-08-21T02:50:56.766Z,73.00
2022-08-21T02:53:26.345Z,73.09
2022-08-21T02:55:55.741Z,72.87
2022-08-21T02:58:29.303Z,73.18
2022-08-21T03:00:59.537Z,73.24
2022-08-21T03:03:30.549Z,72.99
2022-08-21T03:05:59.470Z,73.03
2022-08-21T03:08:28.222Z,73.04
2022-08-21T03:10:57.055Z,73.13
2022-08-21T03:13:25.619Z,73.18
2022-08-21T03:15:55.163Z,73.21
2022-08-21T03:18:24.047Z,73.16
2022-08-21T03:20:52.575Z,73.27
2022-08-21T03:23:21.297Z,73.11
2022-08-21T03:25:52.130Z,73.18
2022-08-21T03:28:24.810Z,73.23
2022-08-21T03:30:54.382Z,73.38
2022-08-21T03:33:26.584Z,73.32
2022-08-21T03:36:02.005Z,73.29
2022-08-21T03:38:32.470Z,73.28
2022-08-21T03:41:02.353Z,73.63
2022-08-21T03:43:32.277Z,73.63
2022-08-21T03:46:06.199Z,73.33
2022-08-21T03:48:36.827Z,73.31
2022-08-21T03:51:07.547Z,73.34
2022-08-21T03:53:36.346Z,73.46
2022-08-21T03:56:06.600Z,73.59
2022-08-21T03:58:35.485Z,73.25
2022-08-21T04:01:05.885Z,73.38
2022-08-21T04:03:36.737Z,73.50
2022-08-21T04:06:06.022Z,73.51
2022-08-21T04:08:37.909Z,73.71
2022-08-21T04:11:07.389Z,73.80
2022-08-21T04:13:44.339Z,73.48
2022-08-21T04:16:14.519Z,73.55
2022-08-21T04:18:44.095Z,73.59
2022-08-21T04:21:13.380Z,73.64
2022-08-21T04:23:42.182Z,73.69
2022-08-21T04:26:11.282Z,73.67
2022-08-21T04:28:39.777Z,73.41
2022-08-21T04:31:09.836Z,73.74
2022-08-21T04:33:38.565Z,73.90
2022-08-21T04:36:08.100Z,73.82
2022-08-21T04:38:37.797Z,73.63
2022-08-21T04:41:07.509Z,73.66
2022-08-21T04:43:36.379Z,73.85
2022-08-21T04:46:06.816Z,73.90
2022-08-21T04:48:35.905Z,73.73
2022-08-21T04:51:13.393Z,73.92
2022-08-21T04:53:53.136Z,73.72
2022-08-21T04:56:32.513Z,73.78
2022-08-21T04:59:07.977Z,73.75
2022-08-21T05:01:39.186Z,73.74
2022-08-21T05:04:11.768Z,73.79
2022-08-21T05:06:45.002Z,73.88
2022-08-21T05:09:17.833Z,73.69
2022-08-21T05:11:46.779Z,73.83
2022-08-21T05:14:15.856Z,73.76
2022-08-21T05:16:47.391Z,73.77
2022-08-21T05:19:16.247Z,73.83
2022-08-21T05:21:46.577Z,73.93
2022-08-21T05:24:15.974Z,73.84
2022-08-21T05:26:46.625Z,73.86
2022-08-21T05:29:18.260Z,73.60
2022-08-21T05:31:49.031Z,73.89
2022-08-21T05:34:24.518Z,74.01
2022-08-21T05:36:53.739Z,74.02
2022-08-21T05:39:22.197Z,73.99
2022-08-21T05:41:53.132Z,73.91
2022-08-21T05:44:22.056Z,73.89
2022-08-21T05:46:54.078Z,73.97
2022-08-21T05:49:22.601Z,73.75
2022-08-21T05:51:51.204Z,73.95
2022-08-21T05:54:19.762Z,73.93
2022-08-21T05:56:48.488Z,74.00
2022-08-21T05:59:17.265Z,73.93
2022-08-21T06:01:46.507Z,73.93
2022-08-21T06:04:15.222Z,74.05
2022-08-21T06:06:43.738Z,74.00
2022-08-21T06:09:12.390Z,73.95
2022-08-21T06:11:41.209Z,74.01
2022-08-21T06:14:16.329Z,73.88
2022-08-21T06:16:45.414Z,74.09
2022-08-21T06:19:13.958Z,73.86
2022-08-21T06:21:42.579Z,74.19
2022-08-21T06:24:11.635Z,74.02
2022-08-21T06:26:40.665Z,74.08
2022-08-21T06:29:11.629Z,74.17
2022-08-21T06:31:41.313Z,74.18
2022-08-21T06:34:10.127Z,73.98
2022-08-21T06:36:38.585Z,74.06
2022-08-21T06:39:16.495Z,74.15
2022-08-21T06:41:57.498Z,74.10
2022-08-21T06:44:31.634Z,74.07
2022-08-21T06:47:00.402Z,73.82
2022-08-21T06:49:29.183Z,73.86
2022-08-21T06:51:58.112Z,74.12
2022-08-21T06:54:29.518Z,73.94
2022-08-21T06:57:01.458Z,73.92
2022-08-21T06:59:31.062Z,73.92
2022-08-21T07:02:18.920Z,73.78
2022-08-21T07:04:50.110Z,73.71
2022-08-21T07:07:19.032Z,73.72
2022-08-21T07:10:04.205Z,73.75
2022-08-21T07:12:35.558Z,73.86
2022-08-21T07:15:24.177Z,73.58
2022-08-21T07:17:55.898Z,73.43
2022-08-21T07:20:40.107Z,73.62
2022-08-21T07:23:27.768Z,73.71
2022-08-21T07:26:01.670Z,73.54
2022-08-21T07:28:46.311Z,73.66
2022-08-21T07:31:17.783Z,73.41
2022-08-21T07:34:21.160Z,73.49
2022-08-21T07:36:56.017Z,73.57
2022-08-21T07:39:52.712Z,73.46
2022-08-21T07:42:30.227Z,73.48
2022-08-21T07:45:21.850Z,73.42
2022-08-21T07:47:57.273Z,73.42
2022-08-21T07:50:28.952Z,73.52
2022-08-21T07:53:19.345Z,73.76
2022-08-21T07:55:51.325Z,73.57
2022-08-21T07:58:24.933Z,73.45
2022-08-21T08:01:01.641Z,73.50
2022-08-21T08:03:42.870Z,73.47
2022-08-21T08:06:32.131Z,73.54
2022-08-21T08:09:04.869Z,73.58
2022-08-21T08:11:44.513Z,73.37
2022-08-21T08:14:31.419Z,73.73
2022-08-21T08:17:03.777Z,73.67
2022-08-21T08:19:45.121Z,73.60
2022-08-21T08:22:26.198Z,73.76
2022-08-21T08:24:58.393Z,73.61
2022-08-21T08:27:30.322Z,73.66
2022-08-21T08:30:14.821Z,73.88
2022-08-21T08:32:59.208Z,74.00
2022-08-21T08:35:34.005Z,73.94
2022-08-21T08:38:08.079Z,73.77
2022-08-21T08:40:45.199Z,73.91
2022-08-21T08:43:19.916Z,73.98
2022-08-21T08:46:12.435Z,73.53
2022-08-21T08:49:32.008Z,73.73
2022-08-21T08:52:34.911Z,73.67
2022-08-21T08:55:09.864Z,73.50
2022-08-21T08:57:43.460Z,73.68
2022-08-21T09:00:18.198Z,73.44
2022-08-21T09:02:58.993Z,73.68
2022-08-21T09:05:41.412Z,73.37
2022-08-21T09:08:29.404Z,73.34
2022-08-21T09:11:15.882Z,73.53
2022-08-21T09:13:57.060Z,73.50
2022-08-21T09:16:59.948Z,73.41
2022-08-21T09:19:48.317Z,73.08
2022-08-21T09:22:42.479Z,73.66
2022-08-21T09:25:44.034Z,73.52
2022-08-21T09:28:23.671Z,73.26
2022-08-21T09:31:05.265Z,73.31
2022-08-21T09:33:36.936Z,73.10
2022-08-21T09:36:37.428Z,72.86
2022-08-21T09:39:10.750Z,72.86
2022-08-21T09:42:07.802Z,72.83
2022-08-21T09:44:52.161Z,72.43
2022-08-21T09:47:36.851Z,72.55
2022-08-21T09:50:41.338Z,72.42
2022-08-21T09:53:47.328Z,72.64
2022-08-21T09:57:18.039Z,72.52
2022-08-21T10:00:27.789Z,72.18
2022-08-21T10:03:15.418Z,72.33
2022-08-21T10:06:19.085Z,72.39
2022-08-21T10:09:21.632Z,72.37
2022-08-21T10:12:13.943Z,72.34
2022-08-21T10:14:54.301Z,72.59
2022-08-21T10:17:49.693Z,72.31
2022-08-21T10:20:42.071Z,72.67
2022-08-21T10:23:30.667Z,72.66
2022-08-21T10:26:26.938Z,72.72
2022-08-21T10:29:41.981Z,72.71
2022-08-21T10:32:35.613Z,72.69
2022-08-21T10:35:27.108Z,72.79
2022-08-21T10:38:55.243Z,72.68
2022-08-21T10:41:47.345Z,72.90
2022-08-21T10:44:34.436Z,72.74
2022-08-21T10:47:26.877Z,72.77
2022-08-21T10:50:23.339Z,72.61
2022-08-21T10:53:29.952Z,72.59
2022-08-21T10:56:30.932Z,72.65
2022-08-21T10:59:38.437Z,72.69
2022-08-21T11:02:44.899Z,72.48
2022-08-21T11:05:23.927Z,72.70
2022-08-21T11:08:03.308Z,72.68
2022-08-21T11:11:00.478Z,72.56
2022-08-21T11:13:58.390Z,72.55
2022-08-21T11:16:52.981Z,72.93
2022-08-21T11:20:03.501Z,72.90
2022-08-21T11:23:00.022Z,72.84
2022-08-21T11:25:53.231Z,72.68
2022-08-21T11:29:04.994Z,72.51
2022-08-21T11:32:02.725Z,72.54
2022-08-21T11:35:28.330Z,72.72
2022-08-21T11:38:11.670Z,72.51
2022-08-21T11:41:07.372Z,72.31
2022-08-21T11:43:53.851Z,72.40
2022-08-21T11:46:35.675Z,72.26
2022-08-21T11:49:32.623Z,72.44
2022-08-21T11:52:32.262Z,72.27
2022-08-21T11:55:40.344Z,72.14
2022-08-21T11:58:26.808Z,72.29
2022-08-21T12:01:24.513Z,72.10
2022-08-21T12:04:43.990Z,72.17
2022-08-21T12:07:42.152Z,72.35
2022-08-21T12:10:18.329Z,72.54
2022-08-21T12:13:20.609Z,72.47
2022-08-21T12:16:16.872Z,72.40
2022-08-21T12:19:14.370Z,72.77
2022-08-21T12:22:10.357Z,72.47
2022-08-21T12:24:47.296Z,72.57
2022-08-21T12:27:22.846Z,72.23
2022-08-21T12:30:02.183Z,72.47
2022-08-21T12:33:00.883Z,72.31
2022-08-21T12:35:45.102Z,72.13
2022-08-21T12:38:32.413Z,72.21
2022-08-21T12:41:35.167Z,72.29
2022-08-21T12:44:38.492Z,72.49
2022-08-21T12:47:31.585Z,72.19
2022-08-21T12:50:45.339Z,72.26
2022-08-21T12:53:49.265Z,72.07
2022-08-21T12:56:27.841Z,71.84
2022-08-21T12:59:16.879Z,71.94
2022-08-21T13:01:59.580Z,72.18
2022-08-21T13:04:42.513Z,72.20
2022-08-21T13:07:17.611Z,72.12
2022-08-21T13:10:05.218Z,72.15
2022-08-21T13:12:37.861Z,72.19
2022-08-21T13:15:10.804Z,72.10
2022-08-21T13:17:48.978Z,72.23
2022-08-21T13:20:36.895Z,72.20
2022-08-21T13:23:36.199Z,72.39
2022-08-21T13:26:25.603Z,72.32
2022-08-21T13:28:54.619Z,72.17
2022-08-21T13:31:33.046Z,72.21
2022-08-21T13:34:14.343Z,72.35
2022-08-21T13:36:57.109Z,72.42
2022-08-21T13:39:37.611Z,72.40
2022-08-21T13:42:17.871Z,72.33
2022-08-21T13:44:53.913Z,72.31
2022-08-21T13:47:37.624Z,72.80
2022-08-21T13:50:19.827Z,72.60
2022-08-21T13:53:23.827Z,72.57
2022-08-21T13:56:07.453Z,72.33
2022-08-21T13:59:16.581Z,72.19
2022-08-21T14:02:00.301Z,72.43
2022-08-21T14:04:44.991Z,72.21
2022-08-21T14:07:51.695Z,72.44
2022-08-21T14:10:24.475Z,72.24
2022-08-21T14:13:01.553Z,72.36
2022-08-21T14:15:40.785Z,72.46
2022-08-21T14:18:20.675Z,72.30
2022-08-21T14:20:52.173Z,72.56
2022-08-21T14:23:42.855Z,72.47
2022-08-21T14:26:27.165Z,72.45
2022-08-21T14:29:10.239Z,72.58
2022-08-21T14:32:00.215Z,72.41
2022-08-21T14:34:38.148Z,72.26
2022-08-21T14:37:26.756Z,72.13
2022-08-21T14:40:01.045Z,72.17
2022-08-21T14:42:45.269Z,72.09
2022-08-21T14:45:46.009Z,72.18
2022-08-21T14:48:27.921Z,71.91
2022-08-21T14:51:05.432Z,72.16
2022-08-21T14:53:48.326Z,72.13
2022-08-21T14:56:36.219Z,72.05
2022-08-21T14:59:15.176Z,72.24
2022-08-21T15:02:14.610Z,71.85
2022-08-21T15:05:03.531Z,72.17
2022-08-21T15:07:47.040Z,72.25
2022-08-21T15:10:27.993Z,72.39
2022-08-21T15:13:16.563Z,72.49
2022-08-21T15:15:57.181Z,72.37
2022-08-21T15:18:39.670Z,72.50
2022-08-21T15:21:58.139Z,72.35
2022-08-21T15:24:41.999Z,72.55
2022-08-21T15:27:19.563Z,72.50
2022-08-21T15:30:03.360Z,72.51
2022-08-21T15:32:42.663Z,72.50
2022-08-21T15:35:32.624Z,72.61
2022-08-21T15:38:11.295Z,72.69
2022-08-21T15:40:55.583Z,72.51
2022-08-21T15:43:30.818Z,72.61
2022-08-21T15:46:09.696Z,72.50
2022-08-21T15:48:49.597Z,72.77
2022-08-21T15:51:44.304Z,72.49
2022-08-21T15:54:28.356Z,72.45
2022-08-21T15:57:14.388Z,72.39
2022-08-21T16:00:13.135Z,72.47
2022-08-21T16:03:31.072Z,72.56
2022-08-21T16:06:05.700Z,72.30
2022-08-21T16:09:00.421Z,72.18
2022-08-21T16:11:43.380Z,72.35
2022-08-21T16:14:35.369Z,72.32
2022-08-21T16:17:35.969Z,72.24
2022-08-21T16:20:25.324Z,72.66
2022-08-21T16:22:59.072Z,72.68
2022-08-21T16:25:34.049Z,72.53
2022-08-21T16:28:19.951Z,72.59
2022-08-21T16:30:55.471Z,72.40
2022-08-21T16:33:33.576Z,72.75
2022-08-21T16:36:34.761Z,72.33
2022-08-21T16:39:09.199Z,72.54
2022-08-21T16:42:14.175Z,72.43
2022-08-21T16:44:48.624Z,72.45
2022-08-21T16:47:26.418Z,72.64
2022-08-21T16:50:01.390Z,72.32
2022-08-21T16:52:44.648Z,72.37
2022-08-21T16:55:19.415Z,72.44
2022-08-21T16:58:27.012Z,72.45
2022-08-21T17:01:18.525Z,72.39
2022-08-21T17:03:56.470Z,72.46
2022-08-21T17:06:33.970Z,72.38
2022-08-21T17:09:16.162Z,72.14
2022-08-21T17:12:13.723Z,72.60
2022-08-21T17:15:11.085Z,72.35
2022-08-21T17:18:15.965Z,72.29
2022-08-21T17:20:49.006Z,72.51
2022-08-21T17:23:21.888Z,72.38
2022-08-21T17:26:08.503Z,72.04
2022-08-21T20:33:57.996Z,70.06
2022-08-21T20:36:32.931Z,70.32
2022-08-21T20:39:09.478Z,70.07
2022-08-21T20:41:57.437Z,70.26
2022-08-21T20:44:46.493Z,70.67
2022-08-21T20:47:28.397Z,70.55
2022-08-21T20:50:03.505Z,70.55
2022-08-21T20:52:39.694Z,70.72
2022-08-21T20:55:19.965Z,70.88
2022-08-21T20:58:37.779Z,70.90
2022-08-21T21:01:13.236Z,71.17
2022-08-21T21:04:19.466Z,71.07
2022-08-21T21:06:58.386Z,70.99
2022-08-21T21:09:40.176Z,70.99
2022-08-21T21:12:27.945Z,71.16
2022-08-21T21:15:27.949Z,71.41
2022-08-21T21:18:21.172Z,71.55
2022-08-21T21:21:08.448Z,71.35
2022-08-21T21:23:55.471Z,71.70
2022-08-21T21:26:44.639Z,71.76
2022-08-21T21:29:48.957Z,71.71
2022-08-21T21:32:45.393Z,71.98
2022-08-21T21:35:32.271Z,72.05
2022-08-21T21:38:35.315Z,72.11
2022-08-21T21:41:44.905Z,72.41
2022-08-21T21:45:05.985Z,72.20
2022-08-21T21:48:12.229Z,72.19
2022-08-21T21:54:14.108Z,72.43
2022-08-21T21:57:08.480Z,72.41
2022-08-21T22:00:10.939Z,72.13
2022-08-21T22:03:13.464Z,72.25
2022-08-21T22:06:06.913Z,72.30
2022-08-21T22:08:50.612Z,72.59
2022-08-21T22:11:55.703Z,72.68
2022-08-21T22:15:06.057Z,72.48
2022-08-21T22:17:46.387Z,72.69
2022-08-21T22:20:38.762Z,72.77
2022-08-21T22:23:33.042Z,72.88
2022-08-21T22:26:27.973Z,72.87
2022-08-21T22:29:23.320Z,72.88
2022-08-21T22:32:08.497Z,72.72
2022-08-21T22:35:12.032Z,72.86
2022-08-21T22:38:11.335Z,72.86
2022-08-21T22:40:46.164Z,72.95
2022-08-21T22:43:27.090Z,72.81
2022-08-21T22:46:10.654Z,72.75
2022-08-21T22:49:18.474Z,73.15
2022-08-21T22:52:11.839Z,73.15
2022-08-21T22:55:06.873Z,73.05
2022-08-21T22:58:37.070Z,73.38
2022-08-21T23:01:22.120Z,73.11
2022-08-21T23:03:58.354Z,73.19
2022-08-21T23:09:47.086Z,73.00
2022-08-21T23:12:43.699Z,73.21
2022-08-21T23:15:18.470Z,72.90
2022-08-21T23:18:12.304Z,73.22
2022-08-21T23:20:56.811Z,73.07
2022-08-21T23:24:13.386Z,73.05
2022-08-21T23:27:21.441Z,73.22
2022-08-21T23:30:03.123Z,73.26
2022-08-21T23:32:54.989Z,73.24
2022-08-21T23:35:54.833Z,73.38
2022-08-21T23:38:46.046Z,73.29
2022-08-21T23:41:33.893Z,73.34
2022-08-21T23:45:00.525Z,73.25
2022-08-21T23:48:14.509Z,73.36
2022-08-21T23:51:24.630Z,73.44
2022-08-21T23:54:27.211Z,73.73
2022-08-21T23:57:38.833Z,73.59
